createdAt,value
2022-09-07T00:02:22.623Z,14.57
2022-09-07T00:04:49.673Z,14.58
2022-09-07T00:07:16.440Z,14.63
2022-09-07T00:09:43.233Z,14.56
2022-09-07T00:12:10.387Z,14.47
2022-09-07T00:14:37.570Z,14.47
2022-09-07T00:17:04.581Z,14.48
2022-09-07T00:19:31.365Z,14.58
2022-09-07T00:21:58.203Z,14.56
2022-09-07T00:24:25.310Z,14.52
2022-09-07T00:26:55.070Z,14.52
2022-09-07T00:29:21.999Z,14.55
2022-09-07T00:31:48.987Z,14.58
2022-09-07T00:34:16.044Z,14.60
2022-09-07T00:36:43.009Z,14.58
2022-09-07T00:39:09.855Z,14.63
2022-09-07T00:41:36.647Z,14.67
2022-09-07T00:44:22.423Z,14.73
2022-09-07T00:46:49.409Z,14.76
2022-09-07T00:49:19.360Z,14.83
2022-09-07T00:51:52.337Z,14.86
2022-09-07T00:54:22.122Z,14.80
2022-09-07T00:56:50.209Z,14.80
2022-09-07T00:59:20.206Z,14.77
2022-09-07T01:01:47.315Z,14.82
2022-09-07T01:04:15.534Z,14.88
2022-09-07T01:06:43.545Z,14.93
2022-09-07T01:09:12.263Z,14.97
2022-09-07T01:11:39.225Z,14.96
2022-09-07T01:14:07.636Z,14.90
2022-09-07T01:17:00.829Z,14.84
2022-09-07T01:19:46.726Z,14.78
2022-09-07T01:22:52.075Z,14.81
2022-09-07T01:25:37.713Z,14.84
2022-09-07T01:28:13.238Z,14.77
2022-09-07T01:30:42.324Z,14.78
2022-09-07T01:33:41.192Z,14.78
2022-09-07T01:36:31.408Z,14.76
2022-09-07T01:39:02.938Z,14.77
2022-09-07T01:41:35.200Z,14.77
2022-09-07T01:44:20.402Z,14.74
2022-09-07T01:46:57.547Z,14.68
2022-09-07T01:49:26.659Z,14.63
2022-09-07T01:51:57.333Z,14.61
2022-09-07T01:54:44.512Z,14.55
2022-09-07T01:57:16.224Z,14.52
2022-09-07T01:59:45.712Z,14.52
2022-09-07T02:02:18.243Z,14.48
2022-09-07T02:05:03.477Z,14.43
2022-09-07T02:07:35.222Z,14.44
2022-09-07T02:10:13.321Z,14.47
2022-09-07T02:13:07.242Z,14.46
2022-09-07T02:15:52.123Z,14.44
2022-09-07T02:18:21.047Z,14.40
2022-09-07T02:20:50.114Z,14.39
2022-09-07T02:23:26.270Z,14.34
2022-09-07T02:25:56.246Z,14.33
2022-09-07T02:28:26.527Z,14.38
2022-09-07T02:30:53.681Z,14.37
2022-09-07T02:33:20.856Z,14.33
2022-09-07T02:35:47.711Z,14.33
2022-09-07T02:38:14.855Z,14.33
2022-09-07T02:40:41.787Z,14.29
2022-09-07T02:43:09.505Z,14.27
2022-09-07T02:46:02.961Z,14.22
2022-09-07T02:48:48.592Z,14.24
2022-09-07T02:51:23.417Z,14.28
2022-09-07T02:54:22.613Z,14.32
2022-09-07T02:57:12.636Z,14.23
2022-09-07T03:00:02.227Z,14.19
2022-09-07T03:02:31.484Z,14.26
2022-09-07T03:05:21.484Z,14.26
2022-09-07T03:07:52.427Z,14.20
2022-09-07T03:10:19.475Z,14.14
2022-09-07T03:12:47.722Z,14.17
2022-09-07T03:15:20.073Z,14.21
2022-09-07T03:17:47.244Z,14.24
2022-09-07T03:20:14.554Z,14.28
2022-09-07T03:22:41.661Z,14.37
2022-09-07T03:25:09.298Z,14.35
2022-09-07T03:27:36.292Z,14.32
2022-09-07T03:30:04.272Z,14.25
2022-09-07T03:32:32.596Z,14.23
2022-09-07T03:35:00.067Z,14.24
2022-09-07T03:37:27.220Z,14.25
2022-09-07T03:39:54.207Z,14.26
2022-09-07T03:42:21.523Z,14.20
2022-09-07T03:44:50.197Z,14.21
2022-09-07T03:47:17.567Z,14.17
2022-09-07T03:49:44.440Z,14.15
2022-09-07T03:52:11.315Z,14.12
2022-09-07T03:54:39.697Z,14.08
2022-09-07T03:57:06.925Z,14.08
2022-09-07T03:59:33.876Z,14.12
2022-09-07T04:02:00.790Z,14.16
2022-09-07T04:04:28.070Z,14.22
2022-09-07T04:06:55.012Z,14.24
2022-09-07T04:09:21.971Z,14.18
2022-09-07T04:11:49.014Z,14.04
2022-09-07T04:14:16.289Z,13.97
2022-09-07T04:16:44.938Z,13.98
2022-09-07T04:19:11.946Z,13.92
2022-09-07T04:21:39.191Z,13.85
2022-09-07T04:24:06.141Z,13.74
2022-09-07T04:26:33.764Z,13.76
2022-09-07T04:29:04.154Z,13.82
2022-09-07T04:31:31.138Z,13.91
2022-09-07T04:33:57.954Z,13.96
2022-09-07T04:36:27.981Z,13.96
2022-09-07T04:38:59.821Z,13.89
2022-09-07T04:41:27.732Z,13.91
2022-09-07T04:43:55.847Z,13.82
2022-09-07T04:46:26.571Z,13.80
2022-09-07T04:48:54.797Z,13.77
2022-09-07T04:51:22.599Z,13.77
2022-09-07T04:53:51.126Z,13.91
2022-09-07T04:56:18.797Z,13.95
2022-09-07T04:58:46.080Z,13.92
2022-09-07T05:01:14.378Z,13.98
2022-09-07T05:03:41.530Z,14.09
2022-09-07T05:06:09.771Z,14.12
2022-09-07T05:08:38.307Z,14.17
2022-09-07T05:11:07.098Z,14.17
2022-09-07T05:13:34.305Z,14.16
2022-09-07T05:16:02.020Z,14.26
2022-09-07T05:18:29.063Z,14.44
2022-09-07T05:20:57.193Z,14.58
2022-09-07T05:23:25.582Z,14.70
2022-09-07T05:25:53.441Z,14.76
2022-09-07T05:28:20.353Z,14.90
2022-09-07T05:36:22.538Z,15.30
2022-09-07T05:38:49.414Z,15.39
2022-09-07T05:41:17.504Z,15.39
2022-09-07T05:46:32.238Z,15.55
2022-09-07T05:49:00.883Z,15.61
2022-09-07T05:51:28.428Z,15.65
2022-09-07T05:53:56.511Z,15.71
2022-09-07T05:56:23.429Z,15.84
2022-09-07T05:58:53.491Z,15.84
2022-09-07T06:01:20.519Z,15.83
2022-09-07T06:03:47.403Z,15.92
2022-09-07T06:06:19.479Z,16.02
2022-09-07T06:08:47.704Z,16.11
2022-09-07T06:11:16.750Z,16.16
2022-09-07T06:13:43.686Z,16.18
2022-09-07T06:16:11.569Z,16.13
2022-09-07T06:18:40.032Z,16.18
2022-09-07T06:21:10.948Z,16.27
2022-09-07T06:23:38.616Z,16.39
2022-09-07T06:26:05.955Z,16.52
2022-09-07T06:28:37.035Z,16.59
2022-09-07T06:31:05.487Z,16.71
2022-09-07T06:33:32.788Z,16.87
2022-09-07T06:36:01.067Z,16.97
2022-09-07T06:38:32.024Z,17.02
2022-09-07T06:43:53.979Z,17.30
2022-09-07T06:49:15.881Z,17.59
2022-09-07T06:51:47.963Z,17.66
2022-09-07T06:57:09.424Z,17.80
2022-09-07T06:59:37.176Z,17.88
2022-09-07T07:02:04.849Z,17.97
2022-09-07T07:04:34.181Z,18.00
2022-09-07T07:07:05.012Z,17.97
2022-09-07T07:09:32.004Z,18.00
2022-09-07T07:11:58.941Z,18.10
2022-09-07T07:14:25.774Z,18.18
2022-09-07T07:16:52.706Z,18.24
2022-09-07T07:19:19.590Z,18.30
2022-09-07T07:22:10.892Z,18.36
2022-09-07T07:24:33.386Z,18.49
2022-09-07T07:27:00.717Z,18.44
2022-09-07T07:29:28.206Z,18.48
2022-09-07T07:31:55.241Z,18.57
2022-09-07T07:34:22.211Z,18.71
2022-09-07T07:36:49.182Z,18.80
2022-09-07T07:42:05.563Z,18.88
2022-09-07T07:44:32.940Z,18.85
2022-09-07T07:47:00.360Z,18.84
2022-09-07T07:49:27.198Z,18.90
2022-09-07T07:54:42.110Z,19.20
2022-09-07T07:57:08.969Z,19.29
2022-09-07T07:59:36.218Z,19.40
2022-09-07T08:02:05.280Z,19.54
2022-09-07T08:04:33.605Z,19.61
2022-09-07T08:07:01.432Z,19.69
2022-09-07T08:09:30.387Z,19.85
2022-09-07T08:11:57.332Z,19.88
2022-09-07T08:14:24.229Z,20.01
2022-09-07T08:16:50.994Z,20.17
2022-09-07T08:19:18.121Z,20.22
2022-09-07T08:21:44.915Z,20.27
2022-09-07T08:24:12.209Z,20.34
2022-09-07T08:26:39.163Z,20.41
2022-09-07T08:29:05.937Z,20.52
2022-09-07T08:31:33.459Z,20.62
2022-09-07T08:34:00.720Z,20.79
2022-09-07T08:36:27.939Z,20.89
2022-09-07T08:38:55.482Z,20.92
2022-09-07T08:41:35.315Z,21.08
2022-09-07T08:44:03.215Z,21.25
2022-09-07T08:46:43.621Z,21.38
2022-09-07T08:49:19.571Z,21.40
2022-09-07T08:51:59.046Z,21.47
2022-09-07T08:54:25.900Z,21.56
2022-09-07T08:59:50.401Z,21.88
2022-09-07T09:02:38.450Z,21.83
2022-09-07T09:05:20.795Z,21.83
2022-09-07T09:07:57.056Z,21.95
2022-09-07T09:10:33.624Z,22.18
2022-09-07T09:13:03.446Z,22.29
2022-09-07T09:15:48.916Z,22.31
2022-09-07T09:18:34.229Z,22.49
2022-09-07T09:21:01.859Z,22.76
2022-09-07T09:23:34.675Z,22.76
2022-09-07T09:26:04.628Z,22.87
2022-09-07T09:28:32.454Z,23.04
2022-09-07T09:30:59.474Z,23.14
2022-09-07T09:33:27.401Z,23.22
2022-09-07T09:35:55.235Z,23.36
2022-09-07T09:38:33.200Z,23.32
2022-09-07T09:41:20.391Z,23.34
2022-09-07T09:43:54.470Z,23.59
2022-09-07T09:46:34.673Z,23.84
2022-09-07T09:49:05.208Z,24.09
2022-09-07T09:54:36.473Z,24.43
2022-09-07T09:57:04.055Z,24.62
2022-09-07T10:05:48.687Z,25.04
2022-09-07T10:08:33.604Z,25.31
2022-09-07T10:11:05.107Z,25.42
2022-09-07T10:13:46.857Z,25.58
2022-09-07T10:16:15.103Z,25.83
2022-09-07T10:18:54.781Z,25.87
2022-09-07T10:21:26.157Z,25.95
2022-09-07T10:23:54.403Z,26.20
2022-09-07T10:26:25.550Z,26.48
2022-09-07T10:29:12.985Z,26.79
2022-09-07T10:31:45.152Z,26.89
2022-09-07T10:34:38.305Z,27.14
2022-09-07T10:37:08.965Z,27.35
2022-09-07T10:39:43.627Z,27.56
2022-09-07T10:42:31.171Z,27.70
2022-09-07T10:45:30.153Z,28.08
2022-09-07T10:48:35.711Z,28.43
2022-09-07T10:51:13.513Z,28.71
2022-09-07T10:53:43.743Z,28.87
2022-09-07T10:56:17.691Z,29.03
2022-09-07T10:59:03.417Z,29.02
2022-09-07T11:01:57.176Z,29.19
2022-09-07T11:04:44.582Z,29.16
2022-09-07T11:07:34.266Z,29.18
2022-09-07T11:10:32.992Z,29.47
2022-09-07T11:13:02.426Z,29.75
2022-09-07T11:15:35.640Z,30.05
2022-09-07T11:18:13.219Z,30.21
2022-09-07T11:20:45.417Z,30.39
2022-09-07T11:23:18.917Z,30.68
2022-09-07T11:25:54.277Z,30.87
2022-09-07T11:28:41.044Z,30.88
2022-09-07T11:31:13.837Z,30.79
2022-09-07T11:36:46.890Z,30.68
2022-09-07T11:39:18.803Z,30.68
2022-09-07T11:41:49.441Z,30.93
2022-09-07T11:44:25.321Z,31.35
2022-09-07T11:46:55.919Z,31.68
2022-09-07T11:49:23.681Z,31.96
2022-09-07T11:52:10.897Z,32.18
2022-09-07T11:54:57.897Z,32.39
2022-09-07T11:57:33.574Z,32.64
2022-09-07T12:00:20.210Z,32.49
2022-09-07T12:03:07.308Z,32.60
2022-09-07T12:05:44.618Z,32.59
2022-09-07T12:08:19.197Z,32.62
2022-09-07T12:11:08.882Z,32.72
2022-09-07T12:13:54.360Z,32.73
2022-09-07T12:16:42.843Z,32.61
2022-09-07T12:19:17.627Z,32.37
2022-09-07T12:21:49.111Z,31.87
2022-09-07T12:24:35.201Z,31.35
2022-09-07T12:27:03.854Z,31.73
2022-09-07T12:29:32.084Z,32.20
2022-09-07T12:32:52.873Z,32.65
2022-09-07T12:34:50.885Z,33.13
2022-09-07T12:37:47.310Z,33.42
2022-09-07T12:40:49.898Z,33.36
2022-09-07T12:43:37.483Z,33.37
2022-09-07T12:46:04.473Z,33.75
2022-09-07T12:48:49.394Z,33.96
2022-09-07T12:54:31.091Z,33.83
2022-09-07T12:57:31.634Z,33.96
2022-09-07T13:00:31.490Z,34.13
2022-09-07T13:07:01.633Z,34.60
2022-09-07T13:09:30.543Z,34.53
2022-09-07T13:11:58.055Z,34.48
2022-09-07T13:14:26.587Z,34.54
2022-09-07T13:17:18.995Z,34.69
2022-09-07T13:20:12.809Z,34.92
2022-09-07T13:23:00.075Z,35.19
2022-09-07T13:25:47.355Z,35.32
2022-09-07T13:28:25.847Z,35.40
2022-09-07T13:31:11.183Z,35.25
2022-09-07T13:33:46.212Z,35.21
2022-09-07T13:36:19.460Z,35.22
2022-09-07T13:38:47.728Z,35.28
2022-09-07T13:41:17.408Z,35.24
2022-09-07T13:43:48.818Z,35.35
2022-09-07T13:46:32.809Z,35.41
2022-09-07T13:49:04.098Z,35.47
2022-09-07T13:51:45.788Z,35.63
2022-09-07T13:54:26.989Z,35.91
2022-09-07T13:57:14.726Z,35.93
2022-09-07T13:59:43.053Z,35.92
2022-09-07T14:02:22.724Z,35.65
2022-09-07T14:04:51.336Z,35.65
2022-09-07T14:07:25.568Z,35.89
2022-09-07T14:10:17.856Z,35.68
2022-09-07T14:12:47.215Z,35.71
2022-09-07T14:15:36.024Z,35.95
2022-09-07T14:18:04.951Z,36.12
2022-09-07T14:20:32.624Z,36.13
2022-09-07T14:22:59.622Z,36.30
2022-09-07T14:25:26.725Z,36.63
2022-09-07T14:27:53.794Z,36.89
2022-09-07T14:30:28.649Z,36.81
2022-09-07T14:32:56.741Z,36.84
2022-09-07T14:35:25.755Z,36.84
2022-09-07T14:37:53.361Z,36.71
2022-09-07T14:40:22.163Z,36.77
2022-09-07T14:42:50.077Z,36.83
2022-09-07T14:45:18.365Z,36.71
2022-09-07T14:47:46.186Z,36.52
2022-09-07T14:50:37.170Z,36.59
2022-09-07T14:56:00.507Z,36.60
2022-09-07T14:58:30.229Z,36.80
2022-09-07T15:04:03.927Z,37.08
2022-09-07T15:09:30.960Z,37.19
2022-09-07T15:12:10.541Z,37.17
2022-09-07T15:14:37.501Z,36.99
2022-09-07T15:19:51.746Z,37.40
2022-09-07T15:22:19.132Z,37.68
2022-09-07T15:24:49.691Z,37.98
2022-09-07T15:27:20.761Z,38.94
2022-09-07T15:29:47.610Z,40.39
2022-09-07T15:32:16.702Z,41.75
2022-09-07T15:34:44.912Z,42.89
2022-09-07T15:39:59.065Z,43.86
2022-09-07T15:45:13.218Z,44.22
2022-09-07T15:47:51.264Z,44.35
2022-09-07T15:50:19.377Z,44.45
2022-09-07T15:52:46.798Z,44.38
2022-09-07T15:55:14.408Z,44.25
2022-09-07T15:57:51.203Z,44.32
2022-09-07T16:00:21.866Z,44.21
2022-09-07T16:03:06.190Z,43.93
2022-09-07T16:05:33.833Z,43.49
2022-09-07T16:11:04.668Z,42.70
2022-09-07T16:13:32.894Z,42.22
2022-09-07T16:16:00.215Z,41.78
2022-09-07T16:18:31.278Z,41.31
2022-09-07T16:21:03.715Z,40.73
2022-09-07T16:23:30.558Z,39.95
2022-09-07T16:25:58.381Z,39.12
2022-09-07T16:28:26.138Z,38.47
2022-09-07T16:30:53.302Z,37.75
2022-09-07T16:33:20.297Z,36.87
2022-09-07T16:36:00.433Z,35.78
2022-09-07T16:38:44.502Z,34.41
2022-09-07T16:41:15.496Z,33.09
2022-09-07T16:43:42.357Z,31.95
2022-09-07T16:46:11.850Z,31.23
2022-09-07T16:48:38.784Z,30.69
2022-09-07T16:51:06.104Z,30.14
2022-09-07T16:53:34.409Z,29.55
2022-09-07T16:56:05.486Z,28.94
2022-09-07T16:58:37.531Z,28.56
2022-09-07T17:01:05.705Z,28.29
2022-09-07T17:03:33.000Z,27.94
2022-09-07T17:06:00.207Z,27.57
2022-09-07T17:08:27.302Z,27.38
2022-09-07T17:11:01.059Z,27.22
2022-09-07T17:13:28.683Z,27.04
2022-09-07T17:16:01.584Z,26.82
2022-09-07T17:21:16.278Z,26.13
2022-09-07T17:23:49.500Z,25.98
2022-09-07T17:26:22.146Z,25.71
2022-09-07T17:28:49.668Z,25.59
2022-09-07T17:34:08.525Z,25.45
2022-09-07T17:36:35.778Z,25.39
2022-09-07T17:39:19.366Z,25.34
2022-09-07T17:41:52.770Z,25.27
2022-09-07T17:44:19.734Z,25.14
2022-09-07T17:46:46.562Z,25.00
2022-09-07T17:49:14.564Z,24.84
2022-09-07T17:51:41.520Z,24.57
2022-09-07T17:54:11.912Z,24.27
2022-09-07T17:56:40.276Z,24.00
2022-09-07T18:01:55.180Z,23.61
2022-09-07T18:04:22.526Z,23.50
2022-09-07T18:06:49.425Z,23.43
2022-09-07T18:09:16.593Z,23.47
2022-09-07T18:11:48.192Z,23.53
2022-09-07T18:14:16.358Z,23.58
2022-09-07T18:16:44.634Z,23.61
2022-09-07T18:19:12.092Z,23.62
2022-09-07T18:21:41.308Z,23.52
2022-09-07T18:24:11.775Z,23.49
2022-09-07T18:26:40.375Z,23.40
2022-09-07T18:29:18.914Z,23.30
2022-09-07T18:31:54.951Z,23.32
2022-09-07T18:34:22.390Z,23.32
2022-09-07T18:36:49.430Z,23.26
2022-09-07T18:39:16.441Z,23.21
2022-09-07T18:41:43.198Z,23.10
2022-09-07T18:46:57.060Z,22.74
2022-09-07T18:49:24.972Z,22.64
2022-09-07T18:54:39.334Z,22.52
2022-09-07T18:57:07.072Z,22.42
2022-09-07T18:59:34.379Z,22.26
2022-09-07T19:02:04.399Z,22.17
2022-09-07T19:07:20.922Z,22.29
2022-09-07T19:09:48.498Z,22.23
2022-09-07T19:12:15.822Z,22.23
2022-09-07T19:14:42.832Z,22.24
2022-09-07T19:17:11.939Z,22.18
2022-09-07T19:19:39.324Z,22.04
2022-09-07T19:22:06.279Z,21.98
2022-09-07T19:24:33.563Z,21.84
2022-09-07T19:27:01.260Z,21.72
2022-09-07T19:29:28.632Z,21.58
2022-09-07T19:32:07.960Z,21.32
2022-09-07T19:34:36.114Z,21.12
2022-09-07T19:37:03.238Z,20.98
2022-09-07T19:39:30.219Z,20.77
2022-09-07T19:41:57.118Z,20.67
2022-09-07T19:44:23.920Z,20.40
2022-09-07T19:46:50.879Z,20.25
2022-09-07T19:49:17.931Z,20.13
2022-09-07T19:51:45.005Z,20.10
2022-09-07T19:54:12.252Z,20.09
2022-09-07T19:56:40.321Z,20.07
2022-09-07T19:59:07.365Z,20.17
2022-09-07T20:01:35.633Z,20.21
2022-09-07T20:04:04.136Z,20.26
2022-09-07T20:06:32.963Z,20.39
2022-09-07T20:09:01.385Z,20.46
2022-09-07T20:11:31.582Z,20.51
2022-09-07T20:13:58.967Z,20.34
2022-09-07T20:16:26.234Z,20.20
2022-09-07T20:18:53.176Z,20.17
2022-09-07T20:21:21.615Z,20.16
2022-09-07T20:23:48.514Z,20.12
2022-09-07T20:26:16.457Z,20.11
2022-09-07T20:28:43.768Z,20.17
2022-09-07T20:31:14.884Z,20.15
2022-09-07T20:33:42.435Z,20.08
2022-09-07T20:36:13.336Z,19.95
2022-09-07T20:38:41.135Z,19.79
2022-09-07T20:41:08.246Z,19.62
2022-09-07T20:43:35.144Z,19.51
2022-09-07T20:46:02.006Z,19.47
2022-09-07T20:48:28.982Z,19.42
2022-09-07T20:51:00.190Z,19.30
2022-09-07T20:53:27.858Z,19.21
2022-09-07T20:56:02.297Z,19.24
2022-09-07T20:58:29.680Z,19.26
2022-09-07T21:00:56.660Z,19.31
2022-09-07T21:03:23.980Z,19.30
2022-09-07T21:05:50.796Z,19.02
2022-09-07T21:08:18.091Z,18.87
2022-09-07T21:10:45.790Z,18.80
2022-09-07T21:13:13.310Z,18.79
2022-09-07T21:15:44.440Z,18.81
2022-09-07T21:18:17.605Z,18.73
2022-09-07T21:20:56.931Z,18.77
2022-09-07T21:23:32.351Z,18.73
2022-09-07T21:25:59.574Z,18.62
2022-09-07T21:28:26.987Z,18.60
2022-09-07T21:31:05.472Z,18.52
2022-09-07T21:33:33.583Z,18.47
2022-09-07T21:36:07.987Z,18.43
2022-09-07T21:38:35.483Z,18.42
2022-09-07T21:41:09.456Z,18.40
2022-09-07T21:43:36.572Z,18.35
2022-09-07T21:46:10.267Z,18.28
2022-09-07T21:48:37.358Z,18.27
2022-09-07T21:51:04.799Z,18.24
2022-09-07T21:53:31.653Z,18.27
2022-09-07T21:55:59.651Z,18.17
2022-09-07T21:58:27.361Z,18.15
2022-09-07T22:00:54.782Z,18.11
2022-09-07T22:03:22.342Z,18.07
2022-09-07T22:05:49.286Z,18.01
2022-09-07T22:08:16.490Z,17.96
2022-09-07T22:10:44.190Z,17.93
2022-09-07T22:13:11.682Z,17.85
2022-09-07T22:15:38.836Z,17.79
2022-09-07T22:18:06.270Z,17.79
2022-09-07T22:20:33.459Z,17.79
2022-09-07T22:23:00.489Z,17.73
2022-09-07T22:25:27.355Z,17.73
2022-09-07T22:27:54.426Z,17.68
2022-09-07T22:30:21.217Z,17.66
2022-09-07T22:32:48.639Z,17.64
2022-09-07T22:35:16.417Z,17.66
2022-09-07T22:37:43.261Z,17.63
2022-09-07T22:40:10.467Z,17.64
2022-09-07T22:42:37.823Z,17.57
2022-09-07T22:45:05.878Z,17.48
2022-09-07T22:47:33.017Z,17.44
2022-09-07T22:50:00.029Z,17.37
2022-09-07T22:52:26.846Z,17.35
2022-09-07T22:54:53.580Z,17.33
2022-09-07T22:57:20.433Z,17.27
2022-09-07T22:59:47.205Z,17.20
2022-09-07T23:02:13.965Z,17.14
2022-09-07T23:04:40.875Z,17.07
2022-09-07T23:07:07.901Z,17.07
2022-09-07T23:09:34.704Z,17.08
2022-09-07T23:12:01.638Z,17.08
2022-09-07T23:14:28.478Z,17.07
2022-09-07T23:16:55.241Z,17.13
2022-09-07T23:19:22.151Z,17.12
2022-09-07T23:21:48.915Z,17.12
2022-09-07T23:24:17.208Z,17.09
2022-09-07T23:26:44.357Z,17.00
2022-09-07T23:29:11.666Z,16.99
2022-09-07T23:31:38.447Z,17.00
2022-09-07T23:34:05.256Z,16.95
2022-09-07T23:36:32.201Z,16.96
2022-09-07T23:38:59.774Z,16.99
2022-09-07T23:41:26.977Z,17.01
2022-09-07T23:43:54.324Z,17.05
2022-09-07T23:46:21.417Z,17.01
2022-09-07T23:48:48.496Z,16.92
2022-09-07T23:51:18.705Z,16.91
2022-09-07T23:53:48.290Z,16.85
2022-09-07T23:56:15.044Z,16.83
2022-09-07T23:58:41.870Z,16.82
